createdAt,value
2023-02-02T00:01:02.000Z,0
2023-02-02T00:02:18.619Z,0
2023-02-02T00:03:34.904Z,0
2023-02-02T00:04:33.099Z,0
2023-02-02T00:06:07.000Z,0
2023-02-02T00:07:23.534Z,0
2023-02-02T00:08:39.685Z,0
2023-02-02T00:09:37.879Z,0
2023-02-02T00:11:12.000Z,0
2023-02-02T00:12:28.269Z,0
2023-02-02T00:13:44.000Z,0
2023-02-02T00:15:00.000Z,0
2023-02-02T00:16:16.000Z,0
2023-02-02T00:17:15.049Z,0
2023-02-02T00:18:49.000Z,0
2023-02-02T00:20:05.439Z,0
2023-02-02T00:21:21.674Z,0
2023-02-02T00:22:18.842Z,0
2023-02-02T00:23:53.000Z,0
2023-02-02T00:25:09.000Z,0
2023-02-02T00:26:25.000Z,0
2023-02-02T00:27:23.622Z,0
2023-02-02T00:28:57.818Z,0
2023-02-02T00:29:56.012Z,0
2023-02-02T00:31:30.000Z,0
2023-02-02T00:32:46.000Z,0
2023-02-02T00:34:02.000Z,0
2023-02-02T00:35:18.792Z,0
2023-02-02T00:36:35.000Z,0
2023-02-02T00:37:51.000Z,0
2023-02-02T00:39:07.377Z,0
2023-02-02T00:40:05.572Z,0
2023-02-02T00:41:39.000Z,0
2023-02-02T00:42:37.962Z,0
2023-02-02T00:44:12.158Z,0
2023-02-02T00:45:28.388Z,0
2023-02-02T00:46:44.000Z,0
2023-02-02T00:48:14.000Z,0
2023-02-02T00:49:16.000Z,0
2023-02-02T00:50:33.000Z,0
2023-02-02T00:51:49.360Z,0
2023-02-02T00:53:04.575Z,0
2023-02-02T00:54:20.000Z,0
2023-02-02T00:55:36.000Z,0
2023-02-02T00:56:53.000Z,0
2023-02-02T00:58:09.357Z,0
2023-02-02T00:59:38.000Z,0
2023-02-02T01:00:23.705Z,0
2023-02-02T01:01:57.901Z,0
2023-02-02T01:03:14.095Z,0
2023-02-02T01:04:30.000Z,0
2023-02-02T01:05:28.485Z,0
2023-02-02T01:07:16.000Z,0
2023-02-02T01:08:00.875Z,0
2023-02-02T01:09:48.000Z,0
2023-02-02T01:10:51.300Z,0
2023-02-02T01:12:07.000Z,0
2023-02-02T01:13:05.657Z,0
2023-02-02T01:14:53.000Z,0
2023-02-02T01:15:56.000Z,0
2023-02-02T01:17:12.000Z,0
2023-02-02T01:18:10.439Z,0
2023-02-02T01:19:44.000Z,0
2023-02-02T01:20:42.829Z,0
2023-02-02T01:22:17.000Z,0
2023-02-02T01:23:14.234Z,0
2023-02-02T01:24:48.429Z,0
2023-02-02T01:26:04.000Z,0
2023-02-02T01:27:20.000Z,0
2023-02-02T01:28:37.000Z,0
2023-02-02T01:30:06.000Z,0
2023-02-02T01:31:09.405Z,0
2023-02-02T01:32:25.000Z,0
2023-02-02T01:33:23.795Z,0
2023-02-02T01:34:58.000Z,0
2023-02-02T01:36:14.223Z,0
2023-02-02T01:37:30.420Z,0
2023-02-02T01:38:28.576Z,0
2023-02-02T01:40:02.000Z,0
2023-02-02T01:41:18.966Z,0
2023-02-02T01:42:35.162Z,0
2023-02-02T01:43:33.357Z,0
2023-02-02T01:45:07.000Z,0
2023-02-02T01:46:23.000Z,0
2023-02-02T01:47:39.000Z,0
2023-02-02T01:48:56.000Z,0
2023-02-02T01:50:12.000Z,0
2023-02-02T01:51:28.000Z,0
2023-02-02T01:52:44.770Z,0
2023-02-02T01:54:00.000Z,0
2023-02-02T01:55:17.000Z,0
2023-02-02T01:56:15.310Z,0
2023-02-02T01:57:49.000Z,0
2023-02-02T01:59:05.742Z,0
2023-02-02T02:00:21.943Z,0
2023-02-02T02:01:19.108Z,0
2023-02-02T02:02:53.349Z,0
2023-02-02T02:03:51.499Z,0
2023-02-02T02:05:25.000Z,0
2023-02-02T02:06:41.000Z,0
2023-02-02T02:07:58.135Z,0
2023-02-02T02:09:14.282Z,0
2023-02-02T02:10:30.477Z,0
2023-02-02T02:11:46.716Z,0
2023-02-02T02:13:02.000Z,0
2023-02-02T02:14:19.107Z,0
2023-02-02T02:15:35.258Z,0
2023-02-02T02:16:51.000Z,0
2023-02-02T02:18:07.000Z,0
2023-02-02T02:19:23.000Z,0
2023-02-02T02:20:40.000Z,0
2023-02-02T02:21:38.234Z,0
2023-02-02T02:23:12.000Z,0
2023-02-02T02:24:28.625Z,0
2023-02-02T02:25:44.000Z,0
2023-02-02T02:27:01.016Z,0
2023-02-02T02:28:17.000Z,0
2023-02-02T02:29:15.406Z,0
2023-02-02T02:30:48.000Z,0
2023-02-02T02:32:04.000Z,0
2023-02-02T02:33:21.053Z,0
2023-02-02T02:34:37.204Z,0
2023-02-02T02:35:53.000Z,0
2023-02-02T02:37:09.000Z,0
2023-02-02T02:38:25.000Z,0
2023-02-02T02:39:41.000Z,0
2023-02-02T02:40:58.000Z,0
2023-02-02T02:42:14.000Z,0
2023-02-02T02:43:30.000Z,0
2023-02-02T02:44:46.000Z,0
2023-02-02T02:46:03.000Z,0
2023-02-02T02:47:19.155Z,0
2023-02-02T02:48:48.000Z,0
2023-02-02T02:49:51.000Z,0
2023-02-02T02:51:07.743Z,0
2023-02-02T02:52:23.937Z,0
2023-02-02T02:53:40.174Z,0
2023-02-02T02:54:38.327Z,0
2023-02-02T02:56:12.000Z,0
2023-02-02T02:57:28.717Z,0
2023-02-02T02:58:44.000Z,0
2023-02-02T02:59:43.107Z,0
2023-02-02T03:01:17.000Z,0
2023-02-02T03:02:15.497Z,0
2023-02-02T03:03:49.694Z,0
2023-02-02T03:04:47.888Z,0
2023-02-02T03:06:22.084Z,0
2023-02-02T03:07:51.000Z,0
2023-02-02T03:09:07.000Z,0
2023-02-02T03:10:10.669Z,0
2023-02-02T03:11:26.865Z,0
2023-02-02T03:12:25.060Z,0
2023-02-02T03:13:59.000Z,0
2023-02-02T03:15:28.000Z,0
2023-02-02T03:16:45.000Z,0
2023-02-02T03:17:29.899Z,0
2023-02-02T03:19:04.000Z,0
2023-02-02T03:20:20.401Z,0
2023-02-02T03:21:49.000Z,0
2023-02-02T03:22:32.881Z,0
2023-02-02T03:24:07.000Z,0
2023-02-02T03:25:23.000Z,0
2023-02-02T03:26:39.503Z,0
2023-02-02T03:27:55.000Z,0
2023-02-02T03:28:53.858Z,0
2023-02-02T03:30:41.000Z,0
2023-02-02T03:31:26.249Z,0
2023-02-02T03:33:00.444Z,0
2023-02-02T03:33:58.638Z,0
2023-02-02T03:35:46.000Z,0
2023-02-02T03:36:49.000Z,0
2023-02-02T03:38:05.225Z,0
2023-02-02T03:39:20.421Z,0
2023-02-02T03:40:36.000Z,0
2023-02-02T03:41:34.824Z,0
2023-02-02T03:43:22.000Z,0
2023-02-02T03:44:07.214Z,0
2023-02-02T03:45:41.000Z,0
2023-02-02T03:46:39.604Z,0
2023-02-02T03:48:13.000Z,0
2023-02-02T03:49:30.000Z,0
2023-02-02T03:50:46.190Z,0
2023-02-02T03:51:44.385Z,0
2023-02-02T03:53:18.580Z,0
2023-02-02T03:54:16.776Z,0
2023-02-02T03:55:50.000Z,0
2023-02-02T03:56:49.167Z,0
2023-02-02T03:58:05.362Z,0
2023-02-02T03:59:20.586Z,0
2023-02-02T04:01:08.000Z,0
2023-02-02T04:02:09.000Z,0
2023-02-02T04:03:26.000Z,0
2023-02-02T04:04:42.376Z,0
2023-02-02T04:05:58.577Z,0
2023-02-02T04:06:56.772Z,0
2023-02-02T04:08:30.000Z,0
2023-02-02T04:09:47.159Z,0
2023-02-02T04:11:03.000Z,0
2023-02-02T04:12:01.553Z,0
2023-02-02T04:13:35.734Z,0
2023-02-02T04:14:51.943Z,0
2023-02-02T04:16:08.000Z,0
2023-02-02T04:17:24.000Z,0
2023-02-02T04:18:40.000Z,0
2023-02-02T04:19:38.725Z,0
2023-02-02T04:21:26.000Z,0
2023-02-02T04:22:10.129Z,0
2023-02-02T04:23:44.000Z,0
2023-02-02T04:24:42.519Z,0
2023-02-02T04:26:16.716Z,0
2023-02-02T04:27:32.000Z,0
2023-02-02T04:28:49.107Z,0
2023-02-02T04:29:46.330Z,0
2023-02-02T04:31:20.000Z,0
2023-02-02T04:32:50.000Z,0
2023-02-02T04:33:53.038Z,0
2023-02-02T04:34:51.232Z,0
2023-02-02T04:36:25.000Z,0
2023-02-02T04:37:41.000Z,0
2023-02-02T04:39:11.000Z,0
2023-02-02T04:40:14.000Z,0
2023-02-02T04:41:30.000Z,0
2023-02-02T04:42:46.404Z,0
2023-02-02T04:44:02.000Z,0
2023-02-02T04:45:18.781Z,0
2023-02-02T04:46:34.000Z,0
2023-02-02T04:47:33.186Z,0
2023-02-02T04:49:07.000Z,0
2023-02-02T04:50:05.578Z,0
2023-02-02T04:51:39.000Z,0
2023-02-02T04:52:55.000Z,0
2023-02-02T04:54:12.000Z,0
2023-02-02T04:55:28.359Z,0
2023-02-02T04:56:44.000Z,0
2023-02-02T04:57:42.750Z,0
2023-02-02T04:59:16.000Z,0
2023-02-02T05:00:14.170Z,0
2023-02-02T05:01:48.000Z,0
2023-02-02T05:02:46.560Z,0
2023-02-02T05:04:20.000Z,0
2023-02-02T05:05:36.000Z,0
2023-02-02T05:06:53.000Z,0
2023-02-02T05:08:09.000Z,0
2023-02-02T05:09:25.000Z,0
2023-02-02T05:10:40.000Z,0
2023-02-02T05:11:56.000Z,0
2023-02-02T05:13:13.124Z,0
2023-02-02T05:14:42.000Z,0
2023-02-02T05:15:27.525Z,0
2023-02-02T05:17:01.000Z,0
2023-02-02T05:18:17.000Z,0
2023-02-02T05:19:34.110Z,0
2023-02-02T05:20:32.305Z,0
2023-02-02T05:22:19.000Z,0
2023-02-02T05:23:22.000Z,0
2023-02-02T05:24:38.000Z,0
2023-02-02T05:25:55.085Z,0
2023-02-02T05:27:11.000Z,0
2023-02-02T05:28:09.475Z,0
2023-02-02T05:29:43.000Z,0
2023-02-02T05:30:59.865Z,0
2023-02-02T05:32:16.000Z,0
2023-02-02T05:33:14.256Z,0
2023-02-02T05:34:48.000Z,0
2023-02-02T05:36:04.634Z,0
2023-02-02T05:37:20.000Z,0
2023-02-02T05:38:18.066Z,0
2023-02-02T05:39:52.000Z,0
2023-02-02T05:41:08.000Z,0
2023-02-02T05:42:24.653Z,0
2023-02-02T05:43:40.000Z,0
2023-02-02T05:44:57.000Z,0
2023-02-02T05:45:55.237Z,0
2023-02-02T05:47:29.000Z,0
2023-02-02T05:48:45.617Z,0
2023-02-02T05:50:01.000Z,0
2023-02-02T05:51:00.017Z,0
2023-02-02T05:52:34.212Z,0
2023-02-02T05:53:32.407Z,0
2023-02-02T05:55:06.000Z,0
2023-02-02T05:56:22.796Z,0
2023-02-02T05:57:38.989Z,0
2023-02-02T05:58:37.182Z,0
2023-02-02T06:00:11.000Z,0
2023-02-02T06:01:27.000Z,0
2023-02-02T06:02:43.000Z,0
2023-02-02T06:03:59.942Z,0
2023-02-02T06:05:16.000Z,0
2023-02-02T06:06:14.340Z,0
2023-02-02T06:07:48.000Z,0
2023-02-02T06:09:03.000Z,0
2023-02-02T06:10:19.947Z,0
2023-02-02T06:11:36.000Z,0
2023-02-02T06:12:52.000Z,0
2023-02-02T06:13:50.526Z,0
2023-02-02T06:15:24.000Z,0
2023-02-02T06:16:21.926Z,0
2023-02-02T06:18:09.000Z,0
2023-02-02T06:19:12.000Z,0
2023-02-02T06:20:28.000Z,0
2023-02-02T06:21:44.000Z,0
2023-02-02T06:23:00.892Z,4
2023-02-02T06:23:59.085Z,4
2023-02-02T06:25:33.000Z,0
2023-02-02T06:26:31.471Z,4
2023-02-02T06:28:05.000Z,4
2023-02-02T06:29:03.857Z,4
2023-02-02T06:30:38.000Z,4
2023-02-02T06:31:36.243Z,8
2023-02-02T06:33:10.000Z,8
2023-02-02T06:34:26.000Z,12
2023-02-02T06:35:42.000Z,16
2023-02-02T06:36:59.015Z,16
2023-02-02T06:37:57.208Z,20
2023-02-02T06:39:13.401Z,24
2023-02-02T06:40:47.000Z,28
2023-02-02T06:41:44.800Z,32
2023-02-02T06:43:18.993Z,32
2023-02-02T06:44:17.187Z,40
2023-02-02T06:45:51.000Z,44
2023-02-02T06:47:07.000Z,52
2023-02-02T06:48:23.000Z,56
2023-02-02T06:49:21.960Z,64
2023-02-02T06:50:56.000Z,72
2023-02-02T06:51:54.346Z,80
2023-02-02T06:53:42.000Z,92
2023-02-02T06:54:44.732Z,104
2023-02-02T06:56:00.925Z,112
2023-02-02T06:56:59.118Z,128
2023-02-02T06:58:33.000Z,148
2023-02-02T06:59:49.505Z,172
2023-02-02T07:01:05.000Z,192
2023-02-02T07:02:03.891Z,216
2023-02-02T07:03:38.000Z,236
2023-02-02T07:04:36.277Z,256
2023-02-02T07:06:10.000Z,264
2023-02-02T07:07:08.663Z,260
2023-02-02T07:08:42.857Z,264
2023-02-02T07:09:59.000Z,276
2023-02-02T07:11:15.000Z,292
2023-02-02T07:12:31.436Z,308
2023-02-02T07:13:47.000Z,324
2023-02-02T07:15:03.000Z,344
2023-02-02T07:16:20.000Z,368
2023-02-02T07:17:35.221Z,404
2023-02-02T07:19:04.000Z,440
2023-02-02T07:19:49.607Z,484
2023-02-02T07:21:23.000Z,536
2023-02-02T07:22:39.000Z,608
2023-02-02T07:23:56.000Z,712
2023-02-02T07:25:12.379Z,860
2023-02-02T07:26:28.572Z,980
2023-02-02T07:27:44.000Z,1072
2023-02-02T07:29:00.000Z,1124
2023-02-02T07:30:30.000Z,1160
2023-02-02T07:31:46.000Z,1204
2023-02-02T07:32:49.537Z,1244
2023-02-02T07:34:05.730Z,1288
2023-02-02T07:35:21.000Z,1336
2023-02-02T07:36:38.116Z,1392
2023-02-02T07:37:54.000Z,1452
2023-02-02T07:39:10.489Z,1516
2023-02-02T07:40:26.000Z,1688
2023-02-02T07:41:56.000Z,1756
2023-02-02T07:42:58.090Z,1792
2023-02-02T07:44:14.000Z,1816
2023-02-02T07:45:12.490Z,1840
2023-02-02T07:46:46.670Z,1888
2023-02-02T07:48:02.000Z,1932
2023-02-02T07:49:19.000Z,1996
2023-02-02T07:50:35.000Z,2072
2023-02-02T07:51:51.000Z,2152
2023-02-02T07:53:21.000Z,2204
2023-02-02T07:54:23.000Z,2252
2023-02-02T07:55:40.000Z,2324
2023-02-02T07:56:56.228Z,2372
2023-02-02T07:57:54.421Z,2412
2023-02-02T07:59:28.614Z,2496
2023-02-02T08:00:44.000Z,2496
2023-02-02T08:02:01.000Z,2476
2023-02-02T08:04:45.000Z,2316
2023-02-02T08:05:48.000Z,2420
2023-02-02T08:07:04.786Z,2644
2023-02-02T08:08:02.980Z,2744
2023-02-02T08:09:37.000Z,2772
2023-02-02T08:10:35.366Z,2812
2023-02-02T08:12:23.000Z,2844
2023-02-02T08:13:07.752Z,2904
2023-02-02T08:14:41.945Z,2948
2023-02-02T08:17:27.000Z,2992
2023-02-02T08:18:12.525Z,2980
2023-02-02T08:19:46.000Z,3068
2023-02-02T08:21:02.911Z,3100
2023-02-02T08:22:19.104Z,3108
2023-02-02T08:23:17.297Z,3160
2023-02-02T08:24:51.000Z,3180
2023-02-02T08:26:06.000Z,3212
2023-02-02T08:27:22.000Z,3252
2023-02-02T08:28:39.083Z,3320
2023-02-02T08:29:55.000Z,3416
2023-02-02T08:30:53.470Z,3500
2023-02-02T08:32:27.663Z,3252
2023-02-02T08:33:43.000Z,3304
2023-02-02T08:35:13.000Z,2844
2023-02-02T08:36:16.000Z,2712
2023-02-02T08:37:32.436Z,2684
2023-02-02T08:38:30.630Z,2720
2023-02-02T08:40:04.000Z,2896
2023-02-02T08:41:21.016Z,3468
2023-02-02T08:42:37.000Z,3536
2023-02-02T08:43:53.393Z,3632
2023-02-02T08:45:09.596Z,3688
2023-02-02T08:46:25.000Z,3632
2023-02-02T08:47:41.983Z,3684
2023-02-02T08:48:58.000Z,3576
2023-02-02T08:50:14.000Z,3828
2023-02-02T08:51:12.562Z,3448
2023-02-02T08:52:46.000Z,3280
2023-02-02T08:54:02.000Z,3204
2023-02-02T08:55:32.000Z,3256
2023-02-02T08:56:16.349Z,2884
2023-02-02T08:57:50.000Z,3224
2023-02-02T08:59:06.736Z,3620
2023-02-02T09:00:22.929Z,3764
2023-02-02T09:01:21.122Z,3036
2023-02-02T09:02:55.000Z,2968
2023-02-02T09:03:53.508Z,2720
2023-02-02T09:05:27.701Z,2832
2023-02-02T09:06:43.000Z,2804
2023-02-02T09:08:00.088Z,2724
2023-02-02T09:09:16.277Z,3088
2023-02-02T09:10:32.000Z,3248
2023-02-02T09:11:30.668Z,2916
2023-02-02T09:13:04.000Z,2904
2023-02-02T09:14:21.051Z,2636
2023-02-02T09:15:37.247Z,2708
2023-02-02T09:16:35.440Z,2424
2023-02-02T09:18:09.000Z,2472
2023-02-02T09:19:25.000Z,2628
2023-02-02T09:20:55.000Z,2636
2023-02-02T09:21:58.000Z,2700
2023-02-02T09:23:14.000Z,2840
2023-02-02T09:24:12.599Z,3016
2023-02-02T09:25:46.000Z,2920
2023-02-02T09:26:43.999Z,3156
2023-02-02T09:28:18.193Z,4056
2023-02-02T09:29:16.386Z,4284
2023-02-02T09:30:50.579Z,2804
2023-02-02T09:32:06.000Z,2800
2023-02-02T09:33:22.000Z,2668
2023-02-02T09:34:39.000Z,2768
2023-02-02T09:35:55.000Z,2616
2023-02-02T09:36:53.545Z,2628
2023-02-02T09:38:27.739Z,2844
2023-02-02T09:39:57.000Z,4288
2023-02-02T09:41:00.000Z,3800
2023-02-02T09:42:16.000Z,2944
2023-02-02T09:43:32.000Z,2928
2023-02-02T09:46:04.000Z,4100
2023-02-02T09:47:03.092Z,2732
2023-02-02T09:48:37.000Z,2904
2023-02-02T09:49:35.479Z,3184
2023-02-02T09:50:51.794Z,2592
2023-02-02T09:52:07.987Z,2500
2023-02-02T09:53:42.179Z,2584
2023-02-02T09:54:40.373Z,2508
2023-02-02T09:56:14.000Z,2432
2023-02-02T09:58:46.952Z,2448
2023-02-02T10:00:03.000Z,2492
2023-02-02T10:01:19.339Z,3532
2023-02-02T10:02:17.532Z,3456
2023-02-02T10:03:51.000Z,2404
2023-02-02T10:05:07.918Z,1924
2023-02-02T10:06:24.000Z,1832
2023-02-02T10:07:22.305Z,1724
2023-02-02T10:08:56.498Z,1796
2023-02-02T10:10:12.691Z,1968
2023-02-02T10:11:28.000Z,2240
2023-02-02T10:12:26.090Z,2144
2023-02-02T10:14:13.000Z,2100
2023-02-02T10:15:16.000Z,2188
2023-02-02T10:16:32.000Z,2296
2023-02-02T10:17:30.863Z,2280
2023-02-02T10:19:05.000Z,2280
2023-02-02T10:20:03.250Z,2380
2023-02-02T10:21:50.000Z,2528
2023-02-02T10:22:53.000Z,2800
2023-02-02T10:24:09.000Z,2972
2023-02-02T10:25:26.000Z,4468
2023-02-02T10:26:55.000Z,3348
2023-02-02T10:27:40.410Z,3932
2023-02-02T10:29:14.000Z,4828
2023-02-02T10:30:12.797Z,3828
2023-02-02T10:31:46.991Z,3716
2023-02-02T10:33:16.000Z,3356
2023-02-02T10:34:19.360Z,4868
2023-02-02T10:35:35.000Z,3300
2023-02-02T10:36:51.763Z,3384
2023-02-02T10:37:49.957Z,4400
2023-02-02T10:39:24.150Z,4896
2023-02-02T10:40:22.343Z,5040
2023-02-02T10:41:56.000Z,3980
2023-02-02T10:43:12.000Z,4244
2023-02-02T10:44:28.000Z,3532
2023-02-02T10:45:45.117Z,3352
2023-02-02T10:47:01.000Z,3544
2023-02-02T10:48:17.000Z,3984
2023-02-02T10:49:33.000Z,3992
2023-02-02T10:50:49.890Z,3236
2023-02-02T10:52:06.000Z,3228
2023-02-02T10:53:04.278Z,4340
2023-02-02T10:54:38.000Z,3144
2023-02-02T10:55:36.664Z,2972
2023-02-02T10:57:10.857Z,2864
2023-02-02T10:58:09.051Z,3056
2023-02-02T10:59:43.000Z,3568
2023-02-02T11:00:59.553Z,3512
2023-02-02T11:02:15.000Z,2916
2023-02-02T11:03:45.000Z,3136
2023-02-02T11:04:47.317Z,2848
2023-02-02T11:06:03.000Z,2828
2023-02-02T11:07:33.000Z,2804
2023-02-02T11:08:35.000Z,4000
2023-02-02T11:09:52.000Z,3048
2023-02-02T11:11:08.000Z,2924
2023-02-02T11:12:24.000Z,2848
2023-02-02T11:13:40.670Z,2968
2023-02-02T11:14:56.864Z,3060
2023-02-02T11:16:26.000Z,3040
2023-02-02T11:17:10.263Z,3260
2023-02-02T11:18:44.000Z,3808
2023-02-02T11:19:42.650Z,4804
2023-02-02T11:21:16.000Z,4300
2023-02-02T11:22:15.036Z,4728
2023-02-02T11:24:02.000Z,4616
2023-02-02T11:24:47.423Z,4576
2023-02-02T11:26:21.616Z,4588
2023-02-02T11:27:37.000Z,4444
2023-02-02T11:28:54.002Z,4508
2023-02-02T11:29:52.196Z,4528
2023-02-02T11:31:26.000Z,4508
2023-02-02T11:32:56.000Z,4524
2023-02-02T11:33:58.775Z,4476
2023-02-02T11:35:14.968Z,3820
2023-02-02T11:36:31.162Z,4604
2023-02-02T11:37:29.355Z,4620
2023-02-02T11:39:03.000Z,4644
2023-02-02T11:40:19.742Z,4580
2023-02-02T11:41:35.000Z,4596
2023-02-02T11:42:34.128Z,4324
2023-02-02T11:44:08.000Z,4468
2023-02-02T11:45:24.000Z,4020
2023-02-02T11:46:40.000Z,3408
2023-02-02T11:47:37.929Z,3248
2023-02-02T11:49:12.000Z,3468
2023-02-02T11:50:10.316Z,3092
2023-02-02T11:51:44.000Z,2796
2023-02-02T11:53:00.000Z,2688
2023-02-02T11:54:16.000Z,2568
2023-02-02T11:55:33.081Z,2224
2023-02-02T11:56:48.000Z,1996
2023-02-02T11:58:04.493Z,1776
2023-02-02T11:59:20.000Z,1640
2023-02-02T12:00:18.879Z,1576
2023-02-02T12:02:06.000Z,1592
2023-02-02T12:02:50.289Z,1516
2023-02-02T12:04:24.482Z,1372
2023-02-02T12:06:56.868Z,1216
2023-02-02T12:07:55.061Z,1132
2023-02-02T12:09:29.000Z,1028
2023-02-02T12:10:45.000Z,944
2023-02-02T12:12:15.000Z,900
2023-02-02T12:12:59.835Z,904
2023-02-02T12:14:34.028Z,1048
2023-02-02T12:15:32.221Z,1264
2023-02-02T12:17:06.000Z,1536
2023-02-02T12:18:22.000Z,1740
2023-02-02T12:19:38.000Z,1964
2023-02-02T12:20:55.000Z,2040
2023-02-02T12:22:11.000Z,1972
2023-02-02T12:23:40.000Z,1820
2023-02-02T12:24:43.000Z,1688
2023-02-02T12:25:59.000Z,1904
2023-02-02T12:27:15.000Z,2184
2023-02-02T12:28:14.152Z,2492
2023-02-02T12:29:48.000Z,2896
2023-02-02T12:31:04.539Z,3416
2023-02-02T12:32:20.732Z,4404
2023-02-02T12:33:18.925Z,4632
2023-02-02T12:34:53.000Z,4652
2023-02-02T12:35:51.311Z,4608
2023-02-02T12:37:25.000Z,4552
2023-02-02T12:38:41.000Z,4508
2023-02-02T12:39:57.891Z,4436
2023-02-02T12:40:56.084Z,4392
2023-02-02T12:42:30.000Z,4384
2023-02-02T12:43:46.470Z,4396
2023-02-02T12:45:02.663Z,4396
2023-02-02T12:46:18.000Z,4392
2023-02-02T12:47:35.000Z,4332
2023-02-02T12:48:51.000Z,4272
2023-02-02T12:50:07.000Z,4232
2023-02-02T12:51:23.733Z,4208
2023-02-02T12:52:40.000Z,4204
2023-02-02T12:53:56.000Z,4208
2023-02-02T12:54:54.492Z,4208
2023-02-02T12:56:28.000Z,4200
2023-02-02T12:57:45.000Z,4200
2023-02-02T12:59:01.000Z,4192
2023-02-02T13:00:17.490Z,4184
2023-02-02T13:01:33.740Z,4164
2023-02-02T13:02:50.000Z,4156
2023-02-02T13:04:06.239Z,4144
2023-02-02T13:05:22.488Z,4148
2023-02-02T13:06:38.000Z,4148
2023-02-02T13:07:55.000Z,4136
2023-02-02T13:09:24.000Z,4156
2023-02-02T13:10:26.000Z,4152
2023-02-02T13:11:56.000Z,4140
2023-02-02T13:12:59.113Z,4140
2023-02-02T13:14:15.000Z,4120
2023-02-02T13:15:31.499Z,4100
2023-02-02T13:16:47.000Z,4108
2023-02-02T13:18:03.000Z,4116
2023-02-02T13:19:20.000Z,4088
2023-02-02T13:20:36.000Z,4060
2023-02-02T13:21:52.000Z,4044
2023-02-02T13:23:22.000Z,4076
2023-02-02T13:24:24.000Z,4076
2023-02-02T13:25:23.046Z,4048
2023-02-02T13:26:57.239Z,3976
2023-02-02T13:27:55.432Z,3764
2023-02-02T13:29:43.000Z,3620
2023-02-02T13:30:45.000Z,3604
2023-02-02T13:32:02.000Z,3640
2023-02-02T13:33:18.000Z,3732
2023-02-02T13:34:47.000Z,3880
2023-02-02T13:35:50.592Z,4028
2023-02-02T13:37:06.785Z,4084
2023-02-02T13:38:22.978Z,4112
2023-02-02T13:39:39.171Z,4152
2023-02-02T13:40:55.000Z,4156
2023-02-02T13:42:10.000Z,4084
2023-02-02T13:43:25.000Z,4068
2023-02-02T13:44:42.000Z,4076
2023-02-02T13:45:58.281Z,4072
2023-02-02T13:47:14.000Z,4028
2023-02-02T13:48:30.663Z,4000
2023-02-02T13:49:46.000Z,3996
2023-02-02T13:51:03.000Z,3976
2023-02-02T13:52:19.000Z,3920
2023-02-02T13:53:17.440Z,3884
2023-02-02T13:54:51.629Z,3800
2023-02-02T13:56:07.828Z,3788
2023-02-02T13:57:24.000Z,3788
2023-02-02T13:58:40.214Z,3648
2023-02-02T13:59:56.000Z,3508
2023-02-02T14:01:26.000Z,3364
2023-02-02T14:02:28.000Z,3172
2023-02-02T14:03:45.000Z,3264
2023-02-02T14:05:01.000Z,3052
2023-02-02T14:05:59.375Z,3040
2023-02-02T14:07:33.000Z,3120
2023-02-02T14:08:49.761Z,3252
2023-02-02T14:10:05.000Z,3348
2023-02-02T14:11:22.000Z,3360
2023-02-02T14:12:38.340Z,3444
2023-02-02T14:13:54.534Z,3416
2023-02-02T14:15:10.000Z,3196
2023-02-02T14:16:26.000Z,3484
2023-02-02T14:17:43.000Z,3408
2023-02-02T14:19:12.000Z,3212
2023-02-02T14:20:15.000Z,3152
2023-02-02T14:21:31.000Z,3072
2023-02-02T14:22:47.000Z,2984
2023-02-02T14:23:46.080Z,2956
2023-02-02T14:25:20.274Z,2896
2023-02-02T14:26:17.496Z,2724
2023-02-02T14:27:51.000Z,2660
2023-02-02T14:29:07.882Z,2400
2023-02-02T14:30:24.000Z,2344
2023-02-02T14:31:22.269Z,2236
2023-02-02T14:32:56.000Z,2124
2023-02-02T14:35:09.861Z,1964
2023-02-02T14:36:26.055Z,1888
2023-02-02T14:38:00.249Z,1856
2023-02-02T14:38:58.443Z,1824
2023-02-02T14:40:32.623Z,1804
2023-02-02T14:41:48.829Z,1808
2023-02-02T14:43:05.000Z,1800
2023-02-02T14:44:03.215Z,1744
2023-02-02T14:45:37.408Z,1708
2023-02-02T14:46:53.000Z,1696
2023-02-02T14:48:09.781Z,1712
2023-02-02T14:49:07.989Z,1736
2023-02-02T14:50:42.182Z,1780
2023-02-02T14:51:58.360Z,1816
2023-02-02T14:53:14.568Z,1816
2023-02-02T14:54:12.762Z,1824
2023-02-02T14:55:46.000Z,1872
2023-02-02T14:56:45.148Z,1816
2023-02-02T14:58:19.342Z,1796
2023-02-02T14:59:34.564Z,1800
2023-02-02T15:00:50.000Z,1776
2023-02-02T15:01:48.951Z,1776
2023-02-02T15:03:23.133Z,1816
2023-02-02T15:04:39.337Z,1860
2023-02-02T15:06:09.000Z,1872
2023-02-02T15:06:53.724Z,1872
2023-02-02T15:08:27.917Z,1792
2023-02-02T15:09:26.110Z,1692
2023-02-02T15:11:00.303Z,1592
2023-02-02T15:12:15.000Z,1472
2023-02-02T15:13:45.000Z,1372
2023-02-02T15:14:29.896Z,1272
2023-02-02T15:16:04.089Z,1192
2023-02-02T15:17:02.282Z,1124
2023-02-02T15:18:36.000Z,1068
2023-02-02T15:19:34.667Z,1012
2023-02-02T15:21:08.860Z,960
2023-02-02T15:22:07.054Z,912
2023-02-02T15:23:41.247Z,864
2023-02-02T15:24:57.441Z,824
2023-02-02T15:26:13.000Z,776
2023-02-02T15:27:29.829Z,732
2023-02-02T15:28:28.023Z,696
2023-02-02T15:30:15.000Z,664
2023-02-02T15:31:18.413Z,640
2023-02-02T15:32:16.607Z,608
2023-02-02T15:33:50.000Z,584
2023-02-02T15:34:48.996Z,552
2023-02-02T15:36:05.191Z,520
2023-02-02T15:37:39.385Z,488
2023-02-02T15:38:55.580Z,452
2023-02-02T15:39:53.774Z,416
2023-02-02T15:41:41.000Z,392
2023-02-02T15:42:43.000Z,364
2023-02-02T15:43:59.000Z,340
2023-02-02T15:44:57.580Z,316
2023-02-02T15:46:31.000Z,296
2023-02-02T15:47:29.970Z,272
2023-02-02T15:49:17.000Z,252
2023-02-02T15:51:49.000Z,208
2023-02-02T15:52:33.779Z,188
2023-02-02T15:54:07.974Z,168
2023-02-02T15:55:06.169Z,148
2023-02-02T15:56:53.000Z,128
2023-02-02T15:57:55.571Z,112
2023-02-02T15:59:11.767Z,100
2023-02-02T16:00:09.962Z,88
2023-02-02T16:01:44.157Z,76
2023-02-02T16:03:00.352Z,68
2023-02-02T16:03:58.547Z,60
2023-02-02T16:05:46.000Z,52
2023-02-02T16:06:48.937Z,48
2023-02-02T16:07:47.132Z,36
2023-02-02T16:09:21.327Z,32
2023-02-02T16:10:51.000Z,28
2023-02-02T16:11:35.717Z,20
2023-02-02T16:12:51.912Z,20
2023-02-02T16:14:26.107Z,16
2023-02-02T16:16:58.497Z,8
2023-02-02T16:17:56.692Z,8
2023-02-02T16:19:30.000Z,8
2023-02-02T16:20:29.082Z,8
2023-02-02T16:21:45.277Z,4
2023-02-02T16:23:19.000Z,4
2023-02-02T16:24:35.667Z,4
2023-02-02T16:25:51.000Z,4
2023-02-02T16:27:08.000Z,0
2023-02-02T16:28:24.252Z,4
2023-02-02T16:29:40.000Z,4
2023-02-02T16:30:38.642Z,4
2023-02-02T16:32:12.837Z,0
2023-02-02T16:33:29.000Z,0
2023-02-02T16:34:27.227Z,0
2023-02-02T16:36:00.000Z,0
2023-02-02T16:37:16.000Z,0
2023-02-02T16:38:32.000Z,0
2023-02-02T16:39:49.041Z,0
2023-02-02T16:42:21.431Z,0
2023-02-02T16:43:18.639Z,0
2023-02-02T16:44:52.834Z,0
2023-02-02T16:45:51.029Z,0
2023-02-02T16:47:25.225Z,0
2023-02-02T16:48:23.419Z,0
2023-02-02T16:49:57.615Z,0
2023-02-02T16:50:55.810Z,0
2023-02-02T16:52:30.005Z,0
2023-02-02T16:53:46.200Z,0
2023-02-02T16:55:02.395Z,0
2023-02-02T16:56:00.590Z,0
2023-02-02T16:57:34.785Z,0
2023-02-02T16:58:50.000Z,0
2023-02-02T17:00:07.000Z,0
2023-02-02T17:01:05.370Z,0
2023-02-02T17:02:39.000Z,0
2023-02-02T17:03:55.000Z,0
2023-02-02T17:05:11.956Z,0
2023-02-02T17:07:44.346Z,0
2023-02-02T17:09:00.000Z,0
2023-02-02T17:10:16.736Z,0
2023-02-02T17:11:14.931Z,0
2023-02-02T17:12:49.000Z,0
2023-02-02T17:14:05.315Z,0
2023-02-02T17:15:21.517Z,0
2023-02-02T17:16:19.712Z,0
2023-02-02T17:17:53.908Z,0
2023-02-02T17:19:10.000Z,0
2023-02-02T17:20:26.000Z,0
2023-02-02T17:21:24.493Z,0
2023-02-02T17:23:12.000Z,0
2023-02-02T17:23:56.884Z,0
2023-02-02T17:25:31.079Z,0
2023-02-02T17:26:47.000Z,0
2023-02-02T17:27:45.470Z,0
2023-02-02T17:29:19.666Z,0
2023-02-02T17:30:35.919Z,0
2023-02-02T17:31:52.170Z,0
2023-02-02T17:33:08.422Z,0
2023-02-02T17:34:23.688Z,0
2023-02-02T17:35:38.000Z,0
2023-02-02T17:36:55.092Z,0
2023-02-02T17:37:53.287Z,0
2023-02-02T17:39:27.478Z,0
2023-02-02T17:40:43.678Z,0
2023-02-02T17:41:59.000Z,0
2023-02-02T17:42:58.068Z,0
2023-02-02T17:44:32.000Z,0
2023-02-02T17:45:48.459Z,0
2023-02-02T17:47:18.000Z,0
2023-02-02T17:48:02.850Z,0
2023-02-02T17:49:37.000Z,0
2023-02-02T17:50:35.242Z,0
2023-02-02T17:52:09.000Z,0
2023-02-02T17:53:07.633Z,0
2023-02-02T17:54:41.000Z,0
2023-02-02T17:55:58.024Z,0
2023-02-02T17:57:14.000Z,0
2023-02-02T17:58:29.428Z,0
2023-02-02T17:59:45.000Z,0
2023-02-02T18:00:43.820Z,0